createdAt,value
2023-08-15T00:00:28.377Z,99519.75
2023-08-15T00:02:55.726Z,99529.22
2023-08-15T00:05:22.353Z,99529.41
2023-08-15T00:07:49.647Z,99536.06
2023-08-15T00:10:16.291Z,99532.72
2023-08-15T00:12:42.853Z,99539.34
2023-08-15T00:15:10.594Z,99536.91
2023-08-15T00:17:37.198Z,99538.16
2023-08-15T00:20:04.245Z,99529.53
2023-08-15T00:22:30.751Z,99525.22
2023-08-15T00:24:57.442Z,99519.91
2023-08-15T00:27:23.969Z,99531.97
2023-08-15T00:29:50.526Z,99540.47
2023-08-15T00:32:17.040Z,99536.13
2023-08-15T00:34:43.546Z,99536.03
2023-08-15T00:37:10.084Z,99535.22
2023-08-15T00:39:36.610Z,99534.03
2023-08-15T00:42:03.213Z,99526.41
2023-08-15T00:44:29.728Z,99564.13
2023-08-15T00:46:56.431Z,99628.63
2023-08-15T00:49:23.392Z,99645.81
2023-08-15T00:51:51.314Z,99652.66
2023-08-15T00:54:18.863Z,99654.88
2023-08-15T00:56:45.513Z,99661.50
2023-08-15T00:59:12.079Z,99657.78
2023-08-15T01:01:38.719Z,99667.09
2023-08-15T01:04:07.033Z,99679.47
2023-08-15T01:06:33.519Z,99669.22
2023-08-15T01:09:01.207Z,99675.44
2023-08-15T01:11:35.985Z,99681.75
2023-08-15T01:14:08.309Z,99688.59
2023-08-15T01:16:38.755Z,99691.25
2023-08-15T01:19:11.661Z,99687.75
2023-08-15T01:21:43.329Z,99703.59
2023-08-15T01:24:10.850Z,99708.94
2023-08-15T01:26:37.436Z,99711.28
2023-08-15T01:29:04.628Z,99707.66
2023-08-15T01:31:47.342Z,99713.69
2023-08-15T01:34:19.809Z,99707.28
2023-08-15T01:36:51.493Z,99718.56
2023-08-15T01:39:24.241Z,99713.34
2023-08-15T01:41:53.912Z,99708.28
2023-08-15T01:44:21.593Z,99716.56
2023-08-15T01:46:48.304Z,99719.53
2023-08-15T01:49:15.531Z,99724.19
2023-08-15T01:51:42.095Z,99712.19
2023-08-15T01:54:08.679Z,99712.84
2023-08-15T01:56:35.375Z,99711.56
2023-08-15T01:59:02.356Z,99724.16
2023-08-15T02:01:28.944Z,99719.53
2023-08-15T02:03:55.600Z,99715.47
2023-08-15T02:06:22.126Z,99719.88
2023-08-15T02:08:48.676Z,99714.13
2023-08-15T02:11:15.250Z,99713.59
2023-08-15T02:13:41.789Z,99718.38
2023-08-15T02:16:08.302Z,99720.09
2023-08-15T02:18:34.999Z,99728.94
2023-08-15T02:21:01.491Z,99720.81
2023-08-15T02:23:28.257Z,99723.81
2023-08-15T02:25:54.835Z,99720.19
2023-08-15T02:28:21.417Z,99728.09
2023-08-15T02:30:47.967Z,99725.50
2023-08-15T02:33:14.571Z,99719.66
2023-08-15T02:35:43.104Z,99724.59
2023-08-15T02:38:09.793Z,99730.16
2023-08-15T02:40:36.558Z,99740.53
2023-08-15T02:43:03.740Z,99741.91
2023-08-15T02:45:30.982Z,99741.97
2023-08-15T02:47:57.689Z,99742.28
2023-08-15T02:50:24.248Z,99747.88
2023-08-15T02:52:50.800Z,99750.88
2023-08-15T02:55:17.451Z,99750.97
2023-08-15T02:57:44.136Z,99749.59
2023-08-15T03:00:11.114Z,99745.22
2023-08-15T03:02:37.887Z,99747.56
2023-08-15T03:05:05.008Z,99756.47
2023-08-15T03:07:31.516Z,99776.25
2023-08-15T03:09:58.089Z,99763.59
2023-08-15T03:12:24.602Z,99769.22
2023-08-15T03:14:51.238Z,99767.50
2023-08-15T03:17:20.411Z,99771.22
2023-08-15T03:19:47.287Z,99776.97
2023-08-15T03:22:13.803Z,99779.22
2023-08-15T03:24:40.449Z,99775.06
2023-08-15T03:27:07.438Z,99774.16
2023-08-15T03:29:35.508Z,99778.19
2023-08-15T03:32:02.563Z,99789.00
2023-08-15T03:34:29.116Z,99791.59
2023-08-15T03:36:57.194Z,99794.41
2023-08-15T03:39:23.834Z,99803.22
2023-08-15T03:41:50.379Z,99803.28
2023-08-15T03:44:16.924Z,99797.34
2023-08-15T03:46:43.542Z,99788.38
2023-08-15T03:49:10.148Z,99796.00
2023-08-15T03:51:46.522Z,99810.16
2023-08-15T03:54:14.313Z,99810.84
2023-08-15T03:56:41.020Z,99819.97
2023-08-15T03:59:07.904Z,99821.88
2023-08-15T04:01:34.526Z,99832.53
2023-08-15T04:04:01.250Z,99826.34
2023-08-15T04:06:27.864Z,99826.22
2023-08-15T04:08:54.440Z,99830.19
2023-08-15T04:11:20.998Z,99828.47
2023-08-15T04:13:47.858Z,99844.59
2023-08-15T04:16:16.132Z,99852.94
2023-08-15T04:18:42.733Z,99844.97
2023-08-15T04:21:11.356Z,99849.97
2023-08-15T04:23:37.994Z,99858.59
2023-08-15T04:26:04.590Z,99865.50
2023-08-15T04:28:31.157Z,99868.66
2023-08-15T04:30:57.735Z,99872.41
2023-08-15T04:33:24.298Z,99880.25
2023-08-15T04:35:50.852Z,99875.41
2023-08-15T04:38:17.432Z,99875.53
2023-08-15T04:40:45.139Z,99880.03
2023-08-15T04:43:12.243Z,99876.59
2023-08-15T04:45:45.354Z,99879.06
2023-08-15T04:48:13.628Z,99880.81
2023-08-15T04:50:41.535Z,99880.59
2023-08-15T04:53:08.419Z,99886.63
2023-08-15T04:55:35.554Z,99896.84
2023-08-15T04:58:02.402Z,99901.84
2023-08-15T05:00:30.873Z,99897.63
2023-08-15T05:02:59.052Z,99908.16
2023-08-15T05:05:26.061Z,99907.72
2023-08-15T05:07:52.680Z,99899.22
2023-08-15T05:10:19.343Z,99905.88
2023-08-15T05:12:45.852Z,99900.00
2023-08-15T05:15:13.158Z,99909.69
2023-08-15T05:17:39.815Z,99905.41
2023-08-15T05:20:07.069Z,99899.19
2023-08-15T05:22:33.723Z,99907.75
2023-08-15T05:25:00.521Z,99910.09
2023-08-15T05:27:28.178Z,99914.00
2023-08-15T05:29:54.740Z,99904.47
2023-08-15T05:32:21.280Z,99903.81
2023-08-15T05:34:47.852Z,99896.91
2023-08-15T05:37:14.718Z,99891.47
2023-08-15T05:39:41.276Z,99899.22
2023-08-15T05:42:07.940Z,99899.16
2023-08-15T05:44:34.545Z,99907.00
2023-08-15T05:47:01.119Z,99904.47
2023-08-15T05:49:27.692Z,99902.44
2023-08-15T05:51:55.190Z,99900.31
2023-08-15T05:54:22.551Z,99906.78
2023-08-15T05:56:49.118Z,99894.47
2023-08-15T05:59:15.999Z,99907.66
2023-08-15T06:01:42.711Z,99903.19
2023-08-15T06:04:09.327Z,99902.91
2023-08-15T06:06:35.972Z,99910.53
2023-08-15T06:09:02.519Z,99911.28
2023-08-15T06:11:29.124Z,99912.84
2023-08-15T06:13:55.692Z,99911.09
2023-08-15T06:16:22.477Z,99917.97
2023-08-15T06:18:49.046Z,99919.03
2023-08-15T06:21:15.960Z,99911.97
2023-08-15T06:23:42.534Z,99917.03
2023-08-15T06:26:09.131Z,99913.53
2023-08-15T06:28:35.687Z,99911.59
2023-08-15T06:31:02.259Z,99911.81
2023-08-15T06:33:29.126Z,99902.34
2023-08-15T06:35:55.724Z,99908.91
2023-08-15T06:38:22.341Z,99906.63
2023-08-15T06:40:49.842Z,99896.53
2023-08-15T06:43:16.549Z,99911.66
2023-08-15T06:45:43.628Z,99888.56
2023-08-15T06:48:10.189Z,99882.94
2023-08-15T06:50:36.801Z,99889.78
2023-08-15T06:53:04.272Z,99888.63
2023-08-15T06:55:30.841Z,99883.88
2023-08-15T06:57:58.048Z,99900.34
2023-08-15T07:00:24.781Z,99898.66
2023-08-15T07:02:51.592Z,99904.16
2023-08-15T07:05:18.488Z,99925.75
2023-08-15T07:07:45.076Z,99912.19
2023-08-15T07:10:12.009Z,99913.69
2023-08-15T07:12:38.760Z,99913.19
2023-08-15T07:15:05.780Z,99906.97
2023-08-15T07:17:32.689Z,99902.41
2023-08-15T07:19:59.525Z,99901.50
2023-08-15T07:22:26.167Z,99909.16
2023-08-15T07:24:52.926Z,99905.44
2023-08-15T07:27:19.515Z,99906.63
2023-08-15T07:29:46.091Z,99908.72
2023-08-15T07:32:13.799Z,99916.16
2023-08-15T07:34:40.718Z,99918.56
2023-08-15T07:37:07.350Z,99911.97
2023-08-15T07:39:34.145Z,99915.88
2023-08-15T07:42:00.753Z,99918.81
2023-08-15T07:44:28.663Z,99920.28
2023-08-15T07:46:55.354Z,99919.97
2023-08-15T07:49:21.958Z,99925.09
2023-08-15T07:51:48.600Z,99931.69
2023-08-15T07:54:15.190Z,99923.78
2023-08-15T07:56:41.814Z,99913.19
2023-08-15T07:59:08.344Z,99915.59
2023-08-15T08:01:34.931Z,99914.44
2023-08-15T08:04:02.052Z,99911.47
2023-08-15T08:08:58.845Z,99907.69
2023-08-15T08:11:25.515Z,99903.38
2023-08-15T08:13:52.957Z,99901.88
2023-08-15T08:16:19.608Z,99902.00
2023-08-15T08:18:46.198Z,99902.63
2023-08-15T08:21:12.743Z,99902.91
2023-08-15T08:23:39.503Z,99898.75
2023-08-15T08:26:06.194Z,99893.94
2023-08-15T08:28:32.945Z,99885.06
2023-08-15T08:30:59.848Z,99885.66
2023-08-15T08:33:26.787Z,99888.53
2023-08-15T08:35:53.493Z,99886.59
2023-08-15T08:38:20.809Z,99876.34
2023-08-15T08:40:48.741Z,99889.00
2023-08-15T08:43:16.833Z,99881.09
2023-08-15T08:45:50.388Z,99889.94
2023-08-15T08:48:18.509Z,99887.91
2023-08-15T08:50:46.748Z,99882.47
2023-08-15T08:53:13.397Z,99872.88
2023-08-15T08:55:41.347Z,99869.69
2023-08-15T08:58:11.571Z,99875.78
2023-08-15T09:00:40.244Z,99879.56
2023-08-15T09:03:07.164Z,99875.69
2023-08-15T09:05:34.023Z,99875.44
2023-08-15T09:08:01.765Z,99878.78
2023-08-15T09:10:29.187Z,99874.78
2023-08-15T09:13:00.709Z,99870.97
2023-08-15T09:15:27.985Z,99872.06
2023-08-15T09:18:00.416Z,99871.47
2023-08-15T09:20:27.786Z,99870.38
2023-08-15T09:22:58.266Z,99864.00
2023-08-15T09:25:27.783Z,99865.47
2023-08-15T09:27:57.124Z,99859.97
2023-08-15T09:30:23.716Z,99857.75
2023-08-15T09:32:50.522Z,99856.31
2023-08-15T09:35:19.607Z,99849.66
2023-08-15T09:37:52.151Z,99851.31
2023-08-15T09:40:28.216Z,99855.41
2023-08-15T09:42:55.666Z,99856.19
2023-08-15T09:45:22.608Z,99847.97
2023-08-15T09:47:49.310Z,99852.97
2023-08-15T09:50:17.465Z,99847.94
2023-08-15T09:52:49.436Z,99842.94
2023-08-15T09:55:18.828Z,99847.66
2023-08-15T09:57:46.430Z,99846.34
2023-08-15T10:00:14.531Z,99849.69
2023-08-15T10:02:51.000Z,99845.56
2023-08-15T10:05:22.485Z,99843.44
2023-08-15T10:07:50.769Z,99850.38
2023-08-15T10:10:18.495Z,99848.34
2023-08-15T10:12:46.850Z,99847.38
2023-08-15T10:15:15.838Z,99847.47
2023-08-15T10:17:42.833Z,99840.25
2023-08-15T10:20:13.380Z,99840.84
2023-08-15T10:22:43.316Z,99846.69
2023-08-15T10:25:25.156Z,99834.06
2023-08-15T10:27:54.324Z,99829.69
2023-08-15T10:30:37.052Z,99835.94
2023-08-15T10:33:25.423Z,99828.91
2023-08-15T10:35:57.850Z,99824.19
2023-08-15T10:38:42.091Z,99818.59
2023-08-15T10:41:15.138Z,99824.50
2023-08-15T10:43:48.375Z,99808.47
2023-08-15T10:46:17.497Z,99805.06
2023-08-15T10:51:29.407Z,99802.53
2023-08-15T10:53:57.834Z,99793.09
2023-08-15T10:56:33.274Z,99793.94
2023-08-15T10:59:05.371Z,99787.19
2023-08-15T11:01:33.225Z,99782.31
2023-08-15T11:04:00.600Z,99785.31
2023-08-15T11:06:27.348Z,99786.22
2023-08-15T11:08:57.210Z,99779.31
2023-08-15T11:11:24.243Z,99773.16
2023-08-15T11:13:53.642Z,99776.69
2023-08-15T11:16:23.001Z,99771.16
2023-08-15T11:18:50.340Z,99763.44
2023-08-15T11:21:18.313Z,99756.63
2023-08-15T11:23:47.427Z,99754.44
2023-08-15T11:26:15.586Z,99749.22
2023-08-15T11:28:42.309Z,99749.72
2023-08-15T11:31:21.997Z,99752.22
2023-08-15T11:33:54.965Z,99747.13
2023-08-15T11:36:22.706Z,99746.44
2023-08-15T11:38:49.379Z,99733.84
2023-08-15T11:41:16.288Z,99735.38
2023-08-15T11:43:42.974Z,99731.69
2023-08-15T11:46:09.831Z,99725.28
2023-08-15T11:48:37.201Z,99725.13
2023-08-15T11:51:05.074Z,99722.19
2023-08-15T11:53:31.647Z,99723.50
2023-08-15T11:55:58.280Z,99717.59
2023-08-15T11:58:32.305Z,99716.03
2023-08-15T12:01:07.143Z,99714.13
2023-08-15T12:03:37.852Z,99708.19
2023-08-15T12:06:09.999Z,99708.47
2023-08-15T12:08:37.113Z,99711.19
2023-08-15T12:11:09.457Z,99712.75
2023-08-15T12:13:38.536Z,99713.13
2023-08-15T12:16:06.719Z,99702.13
2023-08-15T12:18:34.224Z,99707.66
2023-08-15T12:21:02.245Z,99702.06
2023-08-15T12:23:29.572Z,99701.63
2023-08-15T12:25:56.738Z,99692.31
2023-08-15T12:28:23.680Z,99688.09
2023-08-15T12:30:50.884Z,99693.03
2023-08-15T12:33:27.457Z,99688.91
2023-08-15T12:36:04.552Z,99688.84
2023-08-15T12:38:31.108Z,99683.91
2023-08-15T12:40:57.626Z,99683.44
2023-08-15T12:43:24.413Z,99681.66
2023-08-15T12:45:51.190Z,99685.72
2023-08-15T12:48:17.932Z,99676.59
2023-08-15T12:50:44.623Z,99681.03
2023-08-15T12:53:11.270Z,99680.63
2023-08-15T12:55:37.934Z,99683.09
2023-08-15T12:58:05.073Z,99672.78
2023-08-15T13:00:31.976Z,99675.03
2023-08-15T13:02:59.025Z,99672.69
2023-08-15T13:05:25.896Z,99678.69
2023-08-15T13:07:52.961Z,99670.22
2023-08-15T13:10:19.542Z,99667.34
2023-08-15T13:12:47.206Z,99668.34
2023-08-15T13:15:13.890Z,99659.66
2023-08-15T13:17:42.275Z,99671.63
2023-08-15T13:20:12.174Z,99665.03
2023-08-15T13:22:38.805Z,99657.00
2023-08-15T13:25:05.709Z,99660.91
2023-08-15T13:27:32.242Z,99661.44
2023-08-15T13:29:58.809Z,99661.34
2023-08-15T13:32:25.466Z,99657.38
2023-08-15T13:34:51.947Z,99661.56
2023-08-15T13:37:18.528Z,99653.41
2023-08-15T13:39:45.471Z,99651.94
2023-08-15T13:42:23.057Z,99640.75
2023-08-15T13:44:53.641Z,99643.09
2023-08-15T13:47:20.669Z,99648.47
2023-08-15T13:49:47.320Z,99650.94
2023-08-15T13:52:13.893Z,99655.06
2023-08-15T13:54:40.419Z,99649.16
2023-08-15T13:57:07.213Z,99643.63
2023-08-15T13:59:34.018Z,99643.59
2023-08-15T14:02:00.637Z,99644.34
2023-08-15T14:04:27.323Z,99634.41
2023-08-15T14:06:57.027Z,99631.50
2023-08-15T14:09:23.568Z,99630.59
2023-08-15T14:11:50.129Z,99633.81
2023-08-15T14:14:17.271Z,99630.81
2023-08-15T14:16:43.907Z,99633.59
2023-08-15T14:19:13.971Z,99627.97
2023-08-15T14:21:40.562Z,99634.25
2023-08-15T14:24:07.388Z,99635.28
2023-08-15T14:26:34.082Z,99634.69
2023-08-15T14:29:00.615Z,99634.16
2023-08-15T14:31:27.727Z,99632.63
2023-08-15T14:33:54.281Z,99630.34
2023-08-15T14:36:20.899Z,99629.56
2023-08-15T14:38:47.507Z,99628.13
2023-08-15T14:41:14.076Z,99634.13
2023-08-15T14:43:40.616Z,99623.94
2023-08-15T14:46:07.194Z,99623.53
2023-08-15T14:48:33.775Z,99618.28
2023-08-15T14:51:00.323Z,99618.97
2023-08-15T14:53:26.906Z,99627.16
2023-08-15T14:55:53.423Z,99619.09
2023-08-15T14:58:19.969Z,99614.66
2023-08-15T15:00:47.830Z,99613.34
2023-08-15T15:03:14.445Z,99614.38
2023-08-15T15:05:41.150Z,99613.59
2023-08-15T15:08:08.673Z,99615.25
2023-08-15T15:10:36.776Z,99614.84
2023-08-15T15:13:03.644Z,99611.97
2023-08-15T15:15:45.940Z,99606.69
2023-08-15T15:18:17.428Z,99606.84
2023-08-15T15:20:44.035Z,99606.44
2023-08-15T15:23:10.561Z,99598.06
2023-08-15T15:25:37.092Z,99595.75
2023-08-15T15:28:03.833Z,99602.25
2023-08-15T15:30:30.363Z,99597.75
2023-08-15T15:32:57.416Z,99593.31
2023-08-15T15:35:24.077Z,99597.47
2023-08-15T15:37:50.587Z,99594.00
2023-08-15T15:40:17.170Z,99585.50
2023-08-15T15:42:43.741Z,99584.41
2023-08-15T15:45:10.529Z,99587.75
2023-08-15T15:47:37.202Z,99596.56
2023-08-15T15:50:03.825Z,99601.56
2023-08-15T15:52:30.406Z,99595.00
2023-08-15T15:54:57.003Z,99593.06
2023-08-15T15:57:23.718Z,99596.53
2023-08-15T15:59:50.759Z,99593.06
2023-08-15T16:02:17.404Z,99591.25
2023-08-15T16:04:47.615Z,99594.78
2023-08-15T16:07:18.310Z,99589.63
2023-08-15T16:09:45.921Z,99592.38
2023-08-15T16:12:12.462Z,99591.44
2023-08-15T16:14:39.002Z,99585.78
2023-08-15T16:17:05.564Z,99579.63
2023-08-15T16:19:32.076Z,99580.84
2023-08-15T16:21:58.731Z,99589.56
2023-08-15T16:24:25.286Z,99581.50
2023-08-15T16:26:52.173Z,99582.41
2023-08-15T16:29:18.708Z,99588.56
2023-08-15T16:31:45.364Z,99581.66
2023-08-15T16:34:11.914Z,99581.84
2023-08-15T16:36:38.454Z,99575.47
2023-08-15T16:39:05.983Z,99580.69
2023-08-15T16:41:32.855Z,99575.91
2023-08-15T16:43:59.535Z,99574.13
2023-08-15T16:46:26.258Z,99569.13
2023-08-15T16:48:53.256Z,99561.25
2023-08-15T16:51:19.845Z,99563.13
2023-08-15T16:53:46.431Z,99563.28
2023-08-15T16:56:13.069Z,99564.41
2023-08-15T16:58:39.624Z,99564.69
2023-08-15T17:01:06.409Z,99566.16
2023-08-15T17:03:33.094Z,99565.84
2023-08-15T17:05:59.859Z,99566.53
2023-08-15T17:08:26.387Z,99568.03
2023-08-15T17:10:52.912Z,99565.03
2023-08-15T17:13:19.668Z,99566.47
2023-08-15T17:15:46.822Z,99564.38
2023-08-15T17:18:13.381Z,99563.22
2023-08-15T17:20:39.954Z,99568.31
2023-08-15T17:23:06.518Z,99566.84
2023-08-15T17:25:33.229Z,99557.56
2023-08-15T17:27:59.772Z,99558.81
2023-08-15T17:30:26.554Z,99558.97
2023-08-15T17:32:54.210Z,99560.09
2023-08-15T17:35:20.874Z,99561.16
2023-08-15T17:37:48.832Z,99565.91
2023-08-15T17:40:15.655Z,99563.63
2023-08-15T17:42:42.234Z,99571.25
2023-08-15T17:45:09.388Z,99574.19
2023-08-15T17:47:36.046Z,99569.13
2023-08-15T17:50:03.023Z,99561.75
2023-08-15T17:52:29.562Z,99562.94
2023-08-15T17:54:56.120Z,99562.31
2023-08-15T17:57:22.717Z,99563.47
2023-08-15T17:59:49.235Z,99570.09
2023-08-15T18:02:15.766Z,99568.41
2023-08-15T18:04:42.334Z,99559.34
2023-08-15T18:07:08.986Z,99565.91
2023-08-15T18:09:35.529Z,99565.03
2023-08-15T18:12:02.774Z,99575.88
2023-08-15T18:14:30.645Z,99578.13
2023-08-15T18:16:57.363Z,99580.91
2023-08-15T18:19:24.334Z,99580.41
2023-08-15T18:21:50.920Z,99581.00
2023-08-15T18:24:18.384Z,99586.53
2023-08-15T18:26:45.742Z,99580.78
2023-08-15T18:29:12.333Z,99587.38
2023-08-15T18:31:38.911Z,99597.50
2023-08-15T18:34:05.753Z,99595.06
2023-08-15T18:36:32.229Z,99605.16
2023-08-15T18:38:59.552Z,99605.78
2023-08-15T18:41:26.168Z,99607.81
2023-08-15T18:43:52.778Z,99606.81
2023-08-15T18:46:19.406Z,99607.19
2023-08-15T18:48:46.830Z,99615.41
2023-08-15T18:51:13.709Z,99614.72
2023-08-15T18:53:41.861Z,99624.34
2023-08-15T18:56:08.486Z,99627.13
2023-08-15T18:58:35.045Z,99629.00
2023-08-15T19:01:02.029Z,99629.41
2023-08-15T19:03:28.862Z,99643.47
2023-08-15T19:05:57.840Z,99638.41
2023-08-15T19:08:24.336Z,99654.94
2023-08-15T19:10:50.898Z,99656.88
2023-08-15T19:13:22.437Z,99654.56
2023-08-15T19:15:49.863Z,99664.31
2023-08-15T19:18:16.729Z,99675.69
2023-08-15T19:20:43.597Z,99668.34
2023-08-15T19:23:10.139Z,99674.75
2023-08-15T19:25:36.979Z,99676.28
2023-08-15T19:28:03.671Z,99685.63
2023-08-15T19:30:30.266Z,99690.47
2023-08-15T19:32:56.932Z,99685.19
2023-08-15T19:35:23.567Z,99694.66
2023-08-15T19:37:50.792Z,99706.16
2023-08-15T19:40:17.389Z,99706.31
2023-08-15T19:42:46.343Z,99715.34
2023-08-15T19:45:14.545Z,99709.53
2023-08-15T19:47:41.633Z,99702.53
2023-08-15T19:50:09.098Z,99704.94
2023-08-15T19:52:36.393Z,99707.56
2023-08-15T19:55:06.148Z,99714.47
2023-08-15T19:57:33.576Z,99713.56
2023-08-15T20:00:00.667Z,99712.09
2023-08-15T20:02:27.528Z,99718.56
2023-08-15T20:04:54.426Z,99721.06
2023-08-15T20:07:21.154Z,99725.94
2023-08-15T20:09:59.411Z,99729.19
2023-08-15T20:12:34.779Z,99726.53
2023-08-15T20:15:01.281Z,99734.06
2023-08-15T20:17:28.264Z,99738.53
2023-08-15T20:19:55.924Z,99731.84
2023-08-15T20:22:23.508Z,99743.69
2023-08-15T20:24:50.422Z,99742.03
2023-08-15T20:27:17.008Z,99738.78
2023-08-15T20:29:43.782Z,99734.84
2023-08-15T20:32:10.815Z,99731.84
2023-08-15T20:34:37.974Z,99736.78
2023-08-15T20:37:04.718Z,99748.94
2023-08-15T20:39:31.302Z,99751.09
2023-08-15T20:41:57.812Z,99744.34
2023-08-15T20:44:24.443Z,99750.34
2023-08-15T20:46:51.053Z,99741.84
2023-08-15T20:49:17.710Z,99744.66
2023-08-15T20:51:44.378Z,99740.91
2023-08-15T20:54:11.868Z,99749.16
2023-08-15T20:56:38.732Z,99746.66
2023-08-15T20:59:05.309Z,99734.88
2023-08-15T21:01:31.919Z,99739.13
2023-08-15T21:03:58.655Z,99744.09
2023-08-15T21:06:26.417Z,99742.78
2023-08-15T21:08:53.164Z,99745.88
2023-08-15T21:11:20.187Z,99745.47
2023-08-15T21:13:46.947Z,99746.00
2023-08-15T21:16:13.634Z,99760.06
2023-08-15T21:18:40.158Z,99754.09
2023-08-15T21:21:08.672Z,99757.50
2023-08-15T21:23:35.696Z,99755.91
2023-08-15T21:26:02.640Z,99767.72
2023-08-15T21:28:29.224Z,99768.59
2023-08-15T21:30:56.519Z,99775.72
2023-08-15T21:33:23.251Z,99776.00
2023-08-15T21:35:52.385Z,99772.78
2023-08-15T21:38:20.227Z,99780.16
2023-08-15T21:40:50.634Z,99772.78
2023-08-15T21:43:17.685Z,99774.53
2023-08-15T21:45:44.470Z,99785.41
2023-08-15T21:48:11.567Z,99791.88
2023-08-15T21:50:38.395Z,99791.13
2023-08-15T21:53:05.906Z,99797.03
2023-08-15T21:55:33.095Z,99786.78
2023-08-15T21:57:59.800Z,99790.38
2023-08-15T22:00:27.935Z,99781.88
2023-08-15T22:02:57.984Z,99781.41
2023-08-15T22:05:25.993Z,99778.47
2023-08-15T22:07:53.587Z,99772.72
2023-08-15T22:10:21.551Z,99771.06
2023-08-15T22:12:50.099Z,99774.09
2023-08-15T22:15:18.402Z,99766.41
2023-08-15T22:17:50.349Z,99770.81
2023-08-15T22:20:21.479Z,99772.72
2023-08-15T22:22:48.433Z,99768.47
2023-08-15T22:25:17.617Z,99764.38
2023-08-15T22:27:46.057Z,99772.84
2023-08-15T22:30:13.868Z,99766.34
2023-08-15T22:32:40.797Z,99757.75
2023-08-15T22:35:08.109Z,99758.53
2023-08-15T22:37:34.818Z,99745.22
2023-08-15T22:40:04.352Z,99753.91
2023-08-15T22:42:31.945Z,99761.72
2023-08-15T22:44:58.551Z,99768.19
2023-08-15T22:47:25.386Z,99759.50
2023-08-15T22:49:52.130Z,99759.34
2023-08-15T22:52:18.706Z,99755.91
2023-08-15T22:54:45.334Z,99755.00
2023-08-15T22:57:11.886Z,99750.97
2023-08-15T22:59:38.420Z,99752.34
2023-08-15T23:02:05.034Z,99760.84
2023-08-15T23:04:31.719Z,99753.84
2023-08-15T23:06:58.268Z,99745.13
2023-08-15T23:09:24.803Z,99734.03
2023-08-15T23:11:51.348Z,99734.13
2023-08-15T23:14:17.857Z,99731.75
2023-08-15T23:16:44.604Z,99728.88
2023-08-15T23:19:11.364Z,99722.34
2023-08-15T23:21:37.916Z,99715.69
2023-08-15T23:24:06.184Z,99719.53
2023-08-15T23:26:32.778Z,99718.13
2023-08-15T23:28:59.486Z,99705.06
2023-08-15T23:31:33.804Z,99689.31
2023-08-15T23:34:03.502Z,99691.09
2023-08-15T23:36:30.270Z,99688.72
2023-08-15T23:38:58.271Z,99695.72
2023-08-15T23:41:26.630Z,99691.97
2023-08-15T23:43:56.367Z,99682.47
2023-08-15T23:46:24.424Z,99678.25
2023-08-15T23:48:53.944Z,99687.59
2023-08-15T23:51:20.497Z,99685.13
2023-08-15T23:53:48.639Z,99687.06
2023-08-15T23:56:18.392Z,99673.88
2023-08-15T23:58:46.213Z,99676.69
